sensor_id;sensor_type;location;lat;lon;timestamp;pressure;altitude;pressure_sealevel;temperature
77414;BMP280;66486;49.992;19.164;2023-04-03T00:01:18;99231.00;;;3.07
77414;BMP280;66486;49.992;19.164;2023-04-03T00:03:44;99230.66;;;3.08
77414;BMP280;66486;49.992;19.164;2023-04-03T00:06:11;99232.03;;;3.02
77414;BMP280;66486;49.992;19.164;2023-04-03T00:08:37;99232.94;;;2.91
77414;BMP280;66486;49.992;19.164;2023-04-03T00:11:04;99230.28;;;2.91
77414;BMP280;66486;49.992;19.164;2023-04-03T00:13:31;99224.13;;;2.87
77414;BMP280;66486;49.992;19.164;2023-04-03T00:15:57;99229.09;;;2.88
77414;BMP280;66486;49.992;19.164;2023-04-03T00:18:23;99229.97;;;2.77
77414;BMP280;66486;49.992;19.164;2023-04-03T00:20:49;99233.31;;;2.74
77414;BMP280;66486;49.992;19.164;2023-04-03T00:23:15;99230.81;;;2.81
77414;BMP280;66486;49.992;19.164;2023-04-03T00:25:42;99238.47;;;2.82
77414;BMP280;66486;49.992;19.164;2023-04-03T00:28:08;99226.13;;;2.93
77414;BMP280;66486;49.992;19.164;2023-04-03T00:30:34;99231.13;;;2.95
77414;BMP280;66486;49.992;19.164;2023-04-03T00:33:01;99213.16;;;2.88
77414;BMP280;66486;49.992;19.164;2023-04-03T00:35:28;99232.75;;;2.99
77414;BMP280;66486;49.992;19.164;2023-04-03T00:37:54;99233.34;;;2.93
77414;BMP280;66486;49.992;19.164;2023-04-03T00:40:23;99220.94;;;2.97
77414;BMP280;66486;49.992;19.164;2023-04-03T00:42:56;99233.00;;;2.94
77414;BMP280;66486;49.992;19.164;2023-04-03T00:45:43;99239.16;;;2.98
77414;BMP280;66486;49.992;19.164;2023-04-03T00:48:16;99239.69;;;3.04
77414;BMP280;66486;49.992;19.164;2023-04-03T00:50:44;99230.41;;;2.98
77414;BMP280;66486;49.992;19.164;2023-04-03T00:53:21;99234.25;;;2.81
77414;BMP280;66486;49.992;19.164;2023-04-03T00:55:49;99244.44;;;2.79
77414;BMP280;66486;49.992;19.164;2023-04-03T00:58:18;99247.09;;;2.79
77414;BMP280;66486;49.992;19.164;2023-04-03T01:00:50;99238.09;;;2.84
77414;BMP280;66486;49.992;19.164;2023-04-03T01:03:21;99238.25;;;2.91
77414;BMP280;66486;49.992;19.164;2023-04-03T01:05:48;99244.44;;;2.79
77414;BMP280;66486;49.992;19.164;2023-04-03T01:08:13;99252.25;;;2.88
77414;BMP280;66486;49.992;19.164;2023-04-03T01:10:40;99246.66;;;2.93
77414;BMP280;66486;49.992;19.164;2023-04-03T01:13:21;99253.63;;;2.82
77414;BMP280;66486;49.992;19.164;2023-04-03T01:15:48;99245.66;;;2.82
77414;BMP280;66486;49.992;19.164;2023-04-03T01:18:14;99259.78;;;2.86
77414;BMP280;66486;49.992;19.164;2023-04-03T01:20:58;99262.16;;;2.75
77414;BMP280;66486;49.992;19.164;2023-04-03T01:23:42;99264.25;;;2.82
77414;BMP280;66486;49.992;19.164;2023-04-03T01:26:11;99261.69;;;2.85
77414;BMP280;66486;49.992;19.164;2023-04-03T01:28:38;99261.06;;;2.92
77414;BMP280;66486;49.992;19.164;2023-04-03T01:31:15;99263.81;;;2.80
77414;BMP280;66486;49.992;19.164;2023-04-03T01:33:43;99269.91;;;2.80
77414;BMP280;66486;49.992;19.164;2023-04-03T01:36:16;99256.13;;;2.75
77414;BMP280;66486;49.992;19.164;2023-04-03T01:38:43;99264.91;;;2.79
77414;BMP280;66486;49.992;19.164;2023-04-03T01:41:09;99259.03;;;2.85
77414;BMP280;66486;49.992;19.164;2023-04-03T01:43:35;99283.00;;;2.73
77414;BMP280;66486;49.992;19.164;2023-04-03T01:46:01;99280.09;;;2.78
77414;BMP280;66486;49.992;19.164;2023-04-03T01:48:27;99275.28;;;2.68
77414;BMP280;66486;49.992;19.164;2023-04-03T01:50:53;99271.53;;;2.69
77414;BMP280;66486;49.992;19.164;2023-04-03T01:53:19;99274.09;;;2.81
77414;BMP280;66486;49.992;19.164;2023-04-03T01:55:45;99272.88;;;2.79
77414;BMP280;66486;49.992;19.164;2023-04-03T01:58:11;99278.38;;;2.86
77414;BMP280;66486;49.992;19.164;2023-04-03T02:00:37;99265.59;;;2.76
77414;BMP280;66486;49.992;19.164;2023-04-03T02:03:03;99268.19;;;2.72
77414;BMP280;66486;49.992;19.164;2023-04-03T02:05:29;99281.28;;;2.65
77414;BMP280;66486;49.992;19.164;2023-04-03T02:07:55;99275.28;;;2.68
77414;BMP280;66486;49.992;19.164;2023-04-03T02:10:22;99279.69;;;2.61
77414;BMP280;66486;49.992;19.164;2023-04-03T02:12:48;99271.44;;;2.66
77414;BMP280;66486;49.992;19.164;2023-04-03T02:15:14;99275.38;;;2.72
77414;BMP280;66486;49.992;19.164;2023-04-03T02:17:40;99275.91;;;2.77
77414;BMP280;66486;49.992;19.164;2023-04-03T02:20:06;99282.69;;;2.75
77414;BMP280;66486;49.992;19.164;2023-04-03T02:22:32;99280.09;;;2.78
77414;BMP280;66486;49.992;19.164;2023-04-03T02:24:58;99287.72;;;2.80
77414;BMP280;66486;49.992;19.164;2023-04-03T02:27:24;99278.31;;;2.67
77414;BMP280;66486;49.992;19.164;2023-04-03T02:29:50;99282.69;;;2.59
77414;BMP280;66486;49.992;19.164;2023-04-03T02:32:16;99287.31;;;2.62
77414;BMP280;66486;49.992;19.164;2023-04-03T02:34:42;99282.75;;;2.63
77414;BMP280;66486;49.992;19.164;2023-04-03T02:37:08;99274.72;;;2.59
77414;BMP280;66486;49.992;19.164;2023-04-03T02:39:34;99285.16;;;2.68
77414;BMP280;66486;49.992;19.164;2023-04-03T02:42:00;99282.00;;;2.62
77414;BMP280;66486;49.992;19.164;2023-04-03T02:44:26;99280.72;;;2.56
77414;BMP280;66486;49.992;19.164;2023-04-03T02:46:52;99276.94;;;2.57
77414;BMP280;66486;49.992;19.164;2023-04-03T02:49:18;99279.59;;;2.57
77414;BMP280;66486;49.992;19.164;2023-04-03T02:51:44;99291.09;;;2.45
77414;BMP280;66486;49.992;19.164;2023-04-03T02:54:11;99283.28;;;2.52
77414;BMP280;66486;49.992;19.164;2023-04-03T02:56:37;99293.06;;;2.48
77414;BMP280;66486;49.992;19.164;2023-04-03T02:59:04;99288.00;;;2.59
77414;BMP280;66486;49.992;19.164;2023-04-03T03:01:30;99296.31;;;2.58
77414;BMP280;66486;49.992;19.164;2023-04-03T03:04:01;99291.13;;;2.65
77414;BMP280;66486;49.992;19.164;2023-04-03T03:06:27;99296.56;;;2.52
77414;BMP280;66486;49.992;19.164;2023-04-03T03:08:55;99284.56;;;2.59
77414;BMP280;66486;49.992;19.164;2023-04-03T03:11:21;99293.06;;;2.48
77414;BMP280;66486;49.992;19.164;2023-04-03T03:13:47;99293.31;;;2.59
77414;BMP280;66486;49.992;19.164;2023-04-03T03:16:13;99295.63;;;2.61
77414;BMP280;66486;49.992;19.164;2023-04-03T03:18:39;99295.19;;;2.59
77414;BMP280;66486;49.992;19.164;2023-04-03T03:21:05;99298.19;;;2.57
77414;BMP280;66486;49.992;19.164;2023-04-03T03:23:32;99297.00;;;2.54
77414;BMP280;66486;49.992;19.164;2023-04-03T03:26:00;99310.09;;;2.63
77414;BMP280;66486;49.992;19.164;2023-04-03T03:28:26;99299.47;;;2.47
77414;BMP280;66486;49.992;19.164;2023-04-03T03:30:52;99304.94;;;2.54
77414;BMP280;66486;49.992;19.164;2023-04-03T03:33:19;99294.78;;;2.57
77414;BMP280;66486;49.992;19.164;2023-04-03T03:35:45;99295.94;;;2.43
77414;BMP280;66486;49.992;19.164;2023-04-03T03:38:11;99297.03;;;2.42
77414;BMP280;66486;49.992;19.164;2023-04-03T03:40:37;99310.34;;;2.58
77414;BMP280;66486;49.992;19.164;2023-04-03T03:43:03;99303.50;;;2.57
77414;BMP280;66486;49.992;19.164;2023-04-03T03:45:29;99302.13;;;2.47
77414;BMP280;66486;49.992;19.164;2023-04-03T03:47:55;99314.03;;;2.38
77414;BMP280;66486;49.992;19.164;2023-04-03T03:50:21;99302.19;;;2.35
77414;BMP280;66486;49.992;19.164;2023-04-03T03:52:47;99308.25;;;2.36
77414;BMP280;66486;49.992;19.164;2023-04-03T03:55:13;99315.63;;;2.42
77414;BMP280;66486;49.992;19.164;2023-04-03T03:57:39;99318.97;;;2.39
77414;BMP280;66486;49.992;19.164;2023-04-03T04:00:05;99319.31;;;2.22
77414;BMP280;66486;49.992;19.164;2023-04-03T04:02:33;99318.13;;;2.20
77414;BMP280;66486;49.992;19.164;2023-04-03T04:04:58;99317.94;;;2.13
77414;BMP280;66486;49.992;19.164;2023-04-03T04:07:25;99318.75;;;2.01
77414;BMP280;66486;49.992;19.164;2023-04-03T04:09:53;99323.09;;;2.09
77414;BMP280;66486;49.992;19.164;2023-04-03T04:12:20;99336.44;;;1.97
77414;BMP280;66486;49.992;19.164;2023-04-03T04:14:46;99337.75;;;1.91
77414;BMP280;66486;49.992;19.164;2023-04-03T04:17:13;99332.75;;;1.74
77414;BMP280;66486;49.992;19.164;2023-04-03T04:19:39;99333.81;;;1.57
77414;BMP280;66486;49.992;19.164;2023-04-03T04:22:05;99351.22;;;1.58
77414;BMP280;66486;49.992;19.164;2023-04-03T04:24:31;99342.06;;;1.56
77414;BMP280;66486;49.992;19.164;2023-04-03T04:26:57;99346.38;;;1.72
77414;BMP280;66486;49.992;19.164;2023-04-03T04:29:23;99335.66;;;1.69
77414;BMP280;66486;49.992;19.164;2023-04-03T04:31:49;99341.59;;;1.66
77414;BMP280;66486;49.992;19.164;2023-04-03T04:34:15;99352.38;;;1.45
77414;BMP280;66486;49.992;19.164;2023-04-03T04:36:41;99348.63;;;1.46
77414;BMP280;66486;49.992;19.164;2023-04-03T04:39:07;99344.19;;;1.38
77414;BMP280;66486;49.992;19.164;2023-04-03T04:41:33;99348.38;;;1.51
77414;BMP280;66486;49.992;19.164;2023-04-03T04:44:00;99360.63;;;1.43
77414;BMP280;66486;49.992;19.164;2023-04-03T04:46:26;99352.75;;;1.31
77414;BMP280;66486;49.992;19.164;2023-04-03T04:48:52;99363.00;;;1.21
77414;BMP280;66486;49.992;19.164;2023-04-03T04:51:18;99363.75;;;1.21
77414;BMP280;66486;49.992;19.164;2023-04-03T04:53:44;99362.88;;;1.29
77414;BMP280;66486;49.992;19.164;2023-04-03T04:56:11;99373.94;;;1.31
77414;BMP280;66486;49.992;19.164;2023-04-03T04:58:37;99376.44;;;1.40
77414;BMP280;66486;49.992;19.164;2023-04-03T05:01:05;99377.31;;;1.44
77414;BMP280;66486;49.992;19.164;2023-04-03T05:03:32;99370.69;;;1.38
77414;BMP280;66486;49.992;19.164;2023-04-03T05:05:59;99374.03;;;1.35
77414;BMP280;66486;49.992;19.164;2023-04-03T05:08:25;99380.09;;;1.35
77414;BMP280;66486;49.992;19.164;2023-04-03T05:10:51;99383.19;;;1.25
77414;BMP280;66486;49.992;19.164;2023-04-03T05:13:19;99390.69;;;1.35
77414;BMP280;66486;49.992;19.164;2023-04-03T05:15:46;99392.31;;;1.40
77414;BMP280;66486;49.992;19.164;2023-04-03T05:18:12;99394.88;;;1.36
77414;BMP280;66486;49.992;19.164;2023-04-03T05:20:39;99388.91;;;1.39
77414;BMP280;66486;49.992;19.164;2023-04-03T05:23:05;99389.03;;;1.43
77414;BMP280;66486;49.992;19.164;2023-04-03T05:25:31;99394.19;;;1.39
77414;BMP280;66486;49.992;19.164;2023-04-03T05:27:57;99399.88;;;1.26
77414;BMP280;66486;49.992;19.164;2023-04-03T05:30:24;99401.06;;;1.52
77414;BMP280;66486;49.992;19.164;2023-04-03T05:32:50;99406.13;;;1.33
77414;BMP280;66486;49.992;19.164;2023-04-03T05:35:16;99412.22;;;1.22
77414;BMP280;66486;49.992;19.164;2023-04-03T05:37:42;99399.97;;;1.05
77414;BMP280;66486;49.992;19.164;2023-04-03T05:40:09;99416.63;;;1.06
77414;BMP280;66486;49.992;19.164;2023-04-03T05:42:35;99416.09;;;1.12
77414;BMP280;66486;49.992;19.164;2023-04-03T05:45:01;99411.88;;;0.99
77414;BMP280;66486;49.992;19.164;2023-04-03T05:47:27;99408.72;;;0.85
77414;BMP280;66486;49.992;19.164;2023-04-03T05:49:53;99408.66;;;0.93
77414;BMP280;66486;49.992;19.164;2023-04-03T05:52:30;99421.59;;;1.07
77414;BMP280;66486;49.992;19.164;2023-04-03T05:54:57;99417.72;;;1.05
77414;BMP280;66486;49.992;19.164;2023-04-03T05:57:23;99420.47;;;0.96
77414;BMP280;66486;49.992;19.164;2023-04-03T05:59:49;99424.34;;;0.98
77414;BMP280;66486;49.992;19.164;2023-04-03T06:02:18;99432.19;;;1.07
77414;BMP280;66486;49.992;19.164;2023-04-03T06:04:45;99428.44;;;1.08
77414;BMP280;66486;49.992;19.164;2023-04-03T06:07:20;99441.25;;;1.06
77414;BMP280;66486;49.992;19.164;2023-04-03T06:09:49;99432.88;;;1.16
77414;BMP280;66486;49.992;19.164;2023-04-03T06:12:15;99431.50;;;1.10
77414;BMP280;66486;49.992;19.164;2023-04-03T06:14:41;99428.22;;;1.25
77414;BMP280;66486;49.992;19.164;2023-04-03T06:17:07;99435.28;;;1.09
77414;BMP280;66486;49.992;19.164;2023-04-03T06:19:35;99445.41;;;1.07
77414;BMP280;66486;49.992;19.164;2023-04-03T06:22:01;99437.13;;;0.96
77414;BMP280;66486;49.992;19.164;2023-04-03T06:24:30;99448.06;;;1.07
77414;BMP280;66486;49.992;19.164;2023-04-03T06:26:56;99449.19;;;1.18
77414;BMP280;66486;49.992;19.164;2023-04-03T06:29:23;99454.72;;;1.25
77414;BMP280;66486;49.992;19.164;2023-04-03T06:31:50;99461.34;;;1.19
77414;BMP280;66486;49.992;19.164;2023-04-03T06:34:17;99467.19;;;1.37
77414;BMP280;66486;49.992;19.164;2023-04-03T06:36:44;99463.78;;;1.48
77414;BMP280;66486;49.992;19.164;2023-04-03T06:39:16;99455.84;;;1.48
77414;BMP280;66486;49.992;19.164;2023-04-03T06:41:43;99457.06;;;1.75
77414;BMP280;66486;49.992;19.164;2023-04-03T06:44:10;99461.03;;;1.69
77414;BMP280;66486;49.992;19.164;2023-04-03T06:46:38;99460.72;;;1.71
77414;BMP280;66486;49.992;19.164;2023-04-03T06:49:05;99458.16;;;1.74
77414;BMP280;66486;49.992;19.164;2023-04-03T06:51:34;99465.19;;;2.07
77414;BMP280;66486;49.992;19.164;2023-04-03T06:54:01;99468.97;;;2.33
77414;BMP280;66486;49.992;19.164;2023-04-03T06:56:28;99479.38;;;2.38
77414;BMP280;66486;49.992;19.164;2023-04-03T06:58:55;99469.31;;;2.32
77414;BMP280;66486;49.992;19.164;2023-04-03T07:01:25;99488.22;;;2.30
77414;BMP280;66486;49.992;19.164;2023-04-03T07:03:52;99474.59;;;2.16
77414;BMP280;66486;49.992;19.164;2023-04-03T07:06:18;99479.22;;;2.19
77414;BMP280;66486;49.992;19.164;2023-04-03T07:08:46;99488.06;;;1.99
77414;BMP280;66486;49.992;19.164;2023-04-03T07:11:13;99482.75;;;1.99
77414;BMP280;66486;49.992;19.164;2023-04-03T07:13:40;99483.47;;;1.84
77414;BMP280;66486;49.992;19.164;2023-04-03T07:16:07;99493.41;;;1.87
77414;BMP280;66486;49.992;19.164;2023-04-03T07:18:34;99506.69;;;1.75
77414;BMP280;66486;49.992;19.164;2023-04-03T07:21:01;99502.81;;;1.84
77414;BMP280;66486;49.992;19.164;2023-04-03T07:23:27;99494.63;;;1.77
77414;BMP280;66486;49.992;19.164;2023-04-03T07:25:54;99501.78;;;2.01
77414;BMP280;66486;49.992;19.164;2023-04-03T07:28:21;99501.78;;;2.01
77414;BMP280;66486;49.992;19.164;2023-04-03T07:30:50;99508.97;;;2.13
77414;BMP280;66486;49.992;19.164;2023-04-03T07:33:18;99508.19;;;1.88
77414;BMP280;66486;49.992;19.164;2023-04-03T07:35:45;99510.44;;;1.74
77414;BMP280;66486;49.992;19.164;2023-04-03T07:38:11;99508.75;;;1.69
77414;BMP280;66486;49.992;19.164;2023-04-03T07:40:38;99505.69;;;1.79
77414;BMP280;66486;49.992;19.164;2023-04-03T07:43:05;99518.13;;;2.15
77414;BMP280;66486;49.992;19.164;2023-04-03T07:45:33;99519.03;;;2.19
77414;BMP280;66486;49.992;19.164;2023-04-03T07:48:00;99520.56;;;1.96
77414;BMP280;66486;49.992;19.164;2023-04-03T07:50:27;99510.84;;;2.00
77414;BMP280;66486;49.992;19.164;2023-04-03T07:52:53;99515.38;;;1.99
77414;BMP280;66486;49.992;19.164;2023-04-03T07:55:21;99508.19;;;2.12
77414;BMP280;66486;49.992;19.164;2023-04-03T07:57:48;99519.91;;;2.23
77414;BMP280;66486;49.992;19.164;2023-04-03T08:00:14;99513.00;;;2.34
77414;BMP280;66486;49.992;19.164;2023-04-03T08:02:44;99521.38;;;2.48
77414;BMP280;66486;49.992;19.164;2023-04-03T08:05:10;99526.88;;;2.16
77414;BMP280;66486;49.992;19.164;2023-04-03T08:07:37;99524.91;;;2.13
77414;BMP280;66486;49.992;19.164;2023-04-03T08:10:04;99521.69;;;2.19
77414;BMP280;66486;49.992;19.164;2023-04-03T08:12:30;99522.22;;;2.25
77414;BMP280;66486;49.992;19.164;2023-04-03T08:14:59;99519.56;;;2.25
77414;BMP280;66486;49.992;19.164;2023-04-03T08:17:26;99514.09;;;2.45
77414;BMP280;66486;49.992;19.164;2023-04-03T08:19:52;99523.56;;;2.59
77414;BMP280;66486;49.992;19.164;2023-04-03T08:22:18;99512.53;;;2.72
77414;BMP280;66486;49.992;19.164;2023-04-03T08:24:44;99520.22;;;2.62
77414;BMP280;66486;49.992;19.164;2023-04-03T08:27:10;99520.75;;;2.67
77414;BMP280;66486;49.992;19.164;2023-04-03T08:29:36;99527.13;;;2.78
77414;BMP280;66486;49.992;19.164;2023-04-03T08:32:04;99524.59;;;2.82
77414;BMP280;66486;49.992;19.164;2023-04-03T08:34:31;99529.22;;;2.85
77414;BMP280;66486;49.992;19.164;2023-04-03T08:37:01;99514.28;;;2.80
77414;BMP280;66486;49.992;19.164;2023-04-03T08:39:27;99535.41;;;2.89
77414;BMP280;66486;49.992;19.164;2023-04-03T08:41:57;99546.34;;;2.87
77414;BMP280;66486;49.992;19.164;2023-04-03T08:44:39;99525.31;;;3.10
77414;BMP280;66486;49.992;19.164;2023-04-03T08:47:18;99538.53;;;3.53
77414;BMP280;66486;49.992;19.164;2023-04-03T08:50:02;99536.41;;;3.59
77414;BMP280;66486;49.992;19.164;2023-04-03T08:52:42;99541.22;;;3.69
77414;BMP280;66486;49.992;19.164;2023-04-03T08:55:44;99528.69;;;3.23
77414;BMP280;66486;49.992;19.164;2023-04-03T09:00:54;99527.75;;;3.62
77414;BMP280;66486;49.992;19.164;2023-04-03T09:03:22;99534.84;;;3.74
77414;BMP280;66486;49.992;19.164;2023-04-03T09:08:30;99529.47;;;3.39
77414;BMP280;66486;49.992;19.164;2023-04-03T09:16:39;99540.00;;;3.20
77414;BMP280;66486;49.992;19.164;2023-04-03T09:19:13;99548.22;;;3.30
77414;BMP280;66486;49.992;19.164;2023-04-03T09:21:41;99545.84;;;3.56
77414;BMP280;66486;49.992;19.164;2023-04-03T09:24:10;99557.75;;;3.31
77414;BMP280;66486;49.992;19.164;2023-04-03T09:26:44;99523.59;;;2.74
77414;BMP280;66486;49.992;19.164;2023-04-03T09:29:16;99549.84;;;3.19
77414;BMP280;66486;49.992;19.164;2023-04-03T09:31:44;99534.19;;;3.02
77414;BMP280;66486;49.992;19.164;2023-04-03T09:34:24;99550.88;;;3.30
77414;BMP280;66486;49.992;19.164;2023-04-03T09:36:56;99555.28;;;3.38
77414;BMP280;66486;49.992;19.164;2023-04-03T09:39:28;99560.06;;;3.33
77414;BMP280;66486;49.992;19.164;2023-04-03T09:42:00;99567.56;;;2.99
77414;BMP280;66486;49.992;19.164;2023-04-03T09:44:33;99565.84;;;2.91
77414;BMP280;66486;49.992;19.164;2023-04-03T09:46:59;99564.53;;;3.01
77414;BMP280;66486;49.992;19.164;2023-04-03T09:49:42;99573.59;;;3.12
77414;BMP280;66486;49.992;19.164;2023-04-03T09:52:25;99551.13;;;3.10
77414;BMP280;66486;49.992;19.164;2023-04-03T09:54:52;99574.25;;;3.09
77414;BMP280;66486;49.992;19.164;2023-04-03T09:57:17;99573.38;;;3.33
77414;BMP280;66486;49.992;19.164;2023-04-03T09:59:57;99579.59;;;3.25
77414;BMP280;66486;49.992;19.164;2023-04-03T10:02:40;99575.78;;;3.53
77414;BMP280;66486;49.992;19.164;2023-04-03T10:08:38;99581.03;;;3.66
77414;BMP280;66486;49.992;19.164;2023-04-03T10:11:12;99577.59;;;3.65
77414;BMP280;66486;49.992;19.164;2023-04-03T10:14:02;99572.75;;;4.02
77414;BMP280;66486;49.992;19.164;2023-04-03T10:25:00;99578.63;;;4.27
77414;BMP280;66486;49.992;19.164;2023-04-03T10:27:46;99565.06;;;5.12
77414;BMP280;66486;49.992;19.164;2023-04-03T10:30:40;99584.53;;;4.55
77414;BMP280;66486;49.992;19.164;2023-04-03T10:46:58;99563.44;;;3.92
77414;BMP280;66486;49.992;19.164;2023-04-03T10:49:50;99578.06;;;4.02
77414;BMP280;66486;49.992;19.164;2023-04-03T10:52:20;99568.97;;;4.03
77414;BMP280;66486;49.992;19.164;2023-04-03T10:57:50;99557.06;;;5.12
77414;BMP280;66486;49.992;19.164;2023-04-03T11:00:25;99560.53;;;5.84
77414;BMP280;66486;49.992;19.164;2023-04-03T11:03:00;99551.91;;;6.24
77414;BMP280;66486;49.992;19.164;2023-04-03T11:05:39;99548.88;;;6.92
77414;BMP280;66486;49.992;19.164;2023-04-03T11:08:34;99556.44;;;5.90
77414;BMP280;66486;49.992;19.164;2023-04-03T11:11:11;99559.78;;;4.74
77414;BMP280;66486;49.992;19.164;2023-04-03T11:14:09;99557.47;;;4.72
77414;BMP280;66486;49.992;19.164;2023-04-03T11:16:47;99547.97;;;5.13
77414;BMP280;66486;49.992;19.164;2023-04-03T11:19:19;99514.81;;;4.91
77414;BMP280;66486;49.992;19.164;2023-04-03T11:21:54;99536.72;;;5.23
77414;BMP280;66486;49.992;19.164;2023-04-03T11:24:27;99558.28;;;5.37
77414;BMP280;66486;49.992;19.164;2023-04-03T11:26:56;99546.41;;;4.70
77414;BMP280;66486;49.992;19.164;2023-04-03T11:29:27;99534.34;;;4.57
77414;BMP280;66486;49.992;19.164;2023-04-03T11:34:52;99546.19;;;4.79
77414;BMP280;66486;49.992;19.164;2023-04-03T11:37:55;99548.41;;;4.96
77414;BMP280;66486;49.992;19.164;2023-04-03T11:40:29;99542.97;;;4.31
77414;BMP280;66486;49.992;19.164;2023-04-03T11:45:59;99540.06;;;4.21
77414;BMP280;66486;49.992;19.164;2023-04-03T11:50:47;99526.16;;;4.46
77414;BMP280;66486;49.992;19.164;2023-04-03T11:58:22;99542.13;;;4.46
77414;BMP280;66486;49.992;19.164;2023-04-03T12:00:57;99532.72;;;4.33
77414;BMP280;66486;49.992;19.164;2023-04-03T12:13:38;99543.59;;;3.90
77414;BMP280;66486;49.992;19.164;2023-04-03T12:16:06;99536.91;;;3.80
77414;BMP280;66486;49.992;19.164;2023-04-03T12:32:40;99533.84;;;4.51
77414;BMP280;66486;49.992;19.164;2023-04-03T12:35:27;99519.03;;;4.50
77414;BMP280;66486;49.992;19.164;2023-04-03T12:43:39;99525.84;;;5.12
77414;BMP280;66486;49.992;19.164;2023-04-03T12:48:39;99514.56;;;5.45
77414;BMP280;66486;49.992;19.164;2023-04-03T12:51:26;99514.25;;;5.76
77414;BMP280;66486;49.992;19.164;2023-04-03T12:54:00;99516.25;;;5.31
77414;BMP280;66486;49.992;19.164;2023-04-03T12:56:31;99512.81;;;5.56
77414;BMP280;66486;49.992;19.164;2023-04-03T12:59:23;99505.50;;;5.50
77414;BMP280;66486;49.992;19.164;2023-04-03T13:02:00;99518.97;;;6.13
77414;BMP280;66486;49.992;19.164;2023-04-03T13:04:28;99514.81;;;5.89
77414;BMP280;66486;49.992;19.164;2023-04-03T13:06:54;99502.97;;;5.60
77414;BMP280;66486;49.992;19.164;2023-04-03T13:11:50;99515.88;;;5.32
77414;BMP280;66486;49.992;19.164;2023-04-03T13:14:20;99514.97;;;5.47
77414;BMP280;66486;49.992;19.164;2023-04-03T13:16:57;99520.84;;;5.11
77414;BMP280;66486;49.992;19.164;2023-04-03T13:19:26;99519.00;;;4.92
77414;BMP280;66486;49.992;19.164;2023-04-03T13:22:08;99512.16;;;4.72
77414;BMP280;66486;49.992;19.164;2023-04-03T13:24:38;99513.03;;;4.76
77414;BMP280;66486;49.992;19.164;2023-04-03T13:27:05;99517.03;;;4.66
77414;BMP280;66486;49.992;19.164;2023-04-03T13:29:36;99525.97;;;4.58
77414;BMP280;66486;49.992;19.164;2023-04-03T13:32:03;99503.38;;;4.49
77414;BMP280;66486;49.992;19.164;2023-04-03T13:34:41;99518.50;;;4.45
77414;BMP280;66486;49.992;19.164;2023-04-03T13:37:27;99537.31;;;4.52
77414;BMP280;66486;49.992;19.164;2023-04-03T13:42:33;99518.84;;;4.62
77414;BMP280;66486;49.992;19.164;2023-04-03T13:47:39;99521.53;;;4.43
77414;BMP280;66486;49.992;19.164;2023-04-03T13:50:14;99522.38;;;4.47
77414;BMP280;66486;49.992;19.164;2023-04-03T13:55:21;99515.06;;;4.44
77414;BMP280;66486;49.992;19.164;2023-04-03T14:00:27;99513.75;;;4.96
77414;BMP280;66486;49.992;19.164;2023-04-03T14:02:56;99515.38;;;4.81
77414;BMP280;66486;49.992;19.164;2023-04-03T14:05:23;99507.34;;;4.58
77414;BMP280;66486;49.992;19.164;2023-04-03T14:07:52;99516.47;;;4.57
77414;BMP280;66486;49.992;19.164;2023-04-03T14:10:17;99507.22;;;4.93
77414;BMP280;66486;49.992;19.164;2023-04-03T14:12:44;99506.19;;;4.98
77414;BMP280;66486;49.992;19.164;2023-04-03T14:15:26;99521.97;;;5.10
77414;BMP280;66486;49.992;19.164;2023-04-03T14:17:53;99502.97;;;5.11
77414;BMP280;66486;49.992;19.164;2023-04-03T14:20:23;99508.47;;;4.99
77414;BMP280;66486;49.992;19.164;2023-04-03T14:22:51;99518.69;;;5.16
77414;BMP280;66486;49.992;19.164;2023-04-03T14:25:18;99513.63;;;5.11
77414;BMP280;66486;49.992;19.164;2023-04-03T14:27:47;99512.75;;;5.04
77414;BMP280;66486;49.992;19.164;2023-04-03T14:30:20;99523.19;;;4.90
77414;BMP280;66486;49.992;19.164;2023-04-03T14:32:47;99513.75;;;4.96
77414;BMP280;66486;49.992;19.164;2023-04-03T14:35:15;99503.69;;;4.86
77414;BMP280;66486;49.992;19.164;2023-04-03T14:37:42;99514.41;;;4.89
77414;BMP280;66486;49.992;19.164;2023-04-03T14:40:13;99509.91;;;4.74
77414;BMP280;66486;49.992;19.164;2023-04-03T14:42:40;99526.75;;;4.59
77414;BMP280;66486;49.992;19.164;2023-04-03T14:45:09;99513.59;;;4.66
77414;BMP280;66486;49.992;19.164;2023-04-03T14:47:47;99528.97;;;4.53
77414;BMP280;66486;49.992;19.164;2023-04-03T14:50:19;99524.47;;;4.57
77414;BMP280;66486;49.992;19.164;2023-04-03T14:52:51;99521.09;;;4.41
77414;BMP280;66486;49.992;19.164;2023-04-03T14:55:19;99511.72;;;4.28
77414;BMP280;66486;49.992;19.164;2023-04-03T14:57:46;99520.81;;;4.27
77414;BMP280;66486;49.992;19.164;2023-04-03T15:00:20;99518.44;;;4.41
77414;BMP280;66486;49.992;19.164;2023-04-03T15:02:47;99520.59;;;4.55
77414;BMP280;66486;49.992;19.164;2023-04-03T15:05:14;99513.72;;;4.54
77414;BMP280;66486;49.992;19.164;2023-04-03T15:07:44;99529.78;;;4.57
77414;BMP280;66486;49.992;19.164;2023-04-03T15:10:21;99512.38;;;4.83
77414;BMP280;66486;49.992;19.164;2023-04-03T15:12:48;99515.03;;;5.02
77414;BMP280;66486;49.992;19.164;2023-04-03T15:15:15;99515.13;;;5.32
77414;BMP280;66486;49.992;19.164;2023-04-03T15:17:42;99525.38;;;5.30
77414;BMP280;66486;49.992;19.164;2023-04-03T15:20:17;99520.53;;;5.12
77414;BMP280;66486;49.992;19.164;2023-04-03T15:22:44;99521.00;;;5.18
77414;BMP280;66486;49.992;19.164;2023-04-03T15:25:10;99519.13;;;4.99
77414;BMP280;66486;49.992;19.164;2023-04-03T15:27:37;99521.50;;;4.82
77414;BMP280;66486;49.992;19.164;2023-04-03T15:30:05;99529.41;;;4.59
77414;BMP280;66486;49.992;19.164;2023-04-03T15:32:32;99526.22;;;4.50
77414;BMP280;66486;49.992;19.164;2023-04-03T15:34:59;99520.19;;;4.34
77414;BMP280;66486;49.992;19.164;2023-04-03T15:37:25;99525.16;;;4.35
77414;BMP280;66486;49.992;19.164;2023-04-03T15:39:51;99518.84;;;4.24
77414;BMP280;66486;49.992;19.164;2023-04-03T15:42:17;99524.34;;;4.15
77414;BMP280;66486;49.992;19.164;2023-04-03T15:44:43;99520.53;;;4.13
77414;BMP280;66486;49.992;19.164;2023-04-03T15:47:09;99531.97;;;3.98
77414;BMP280;66486;49.992;19.164;2023-04-03T15:49:35;99523.72;;;4.03
77414;BMP280;66486;49.992;19.164;2023-04-03T15:52:02;99525.19;;;4.00
77414;BMP280;66486;49.992;19.164;2023-04-03T15:54:28;99529.13;;;4.06
77414;BMP280;66486;49.992;19.164;2023-04-03T15:56:55;99524.41;;;4.00
77414;BMP280;66486;49.992;19.164;2023-04-03T15:59:21;99542.53;;;4.10